createdAt,value
2022-12-25T00:00:20.261Z,91.79
2022-12-25T00:02:47.498Z,91.68
2022-12-25T00:05:13.873Z,91.72
2022-12-25T00:07:40.204Z,91.87
2022-12-25T00:10:06.750Z,91.90
2022-12-25T00:12:33.315Z,91.82
2022-12-25T00:14:59.639Z,91.75
2022-12-25T00:17:26.242Z,91.72
2022-12-25T00:19:52.574Z,91.73
2022-12-25T00:22:18.901Z,91.60
2022-12-25T00:24:45.242Z,91.56
2022-12-25T00:27:11.593Z,91.74
2022-12-25T00:29:38.136Z,91.86
2022-12-25T00:32:04.487Z,91.82
2022-12-25T00:34:31.017Z,91.87
2022-12-25T00:36:57.327Z,91.68
2022-12-25T00:39:23.667Z,91.86
2022-12-25T00:41:50.219Z,91.89
2022-12-25T00:44:16.570Z,91.82
2022-12-25T00:46:43.205Z,91.64
2022-12-25T00:49:09.603Z,91.73
2022-12-25T00:51:35.956Z,91.75
2022-12-25T00:54:02.271Z,91.49
2022-12-25T00:56:28.812Z,91.82
2022-12-25T00:58:55.137Z,91.48
2022-12-25T01:01:21.854Z,91.64
2022-12-25T01:03:48.521Z,91.64
2022-12-25T01:06:14.845Z,91.76
2022-12-25T01:08:41.200Z,91.90
2022-12-25T01:11:07.538Z,91.73
2022-12-25T01:13:34.097Z,91.70
2022-12-25T01:16:00.469Z,91.69
2022-12-25T01:18:27.030Z,91.75
2022-12-25T01:20:53.395Z,91.73
2022-12-25T01:23:19.761Z,91.77
2022-12-25T01:25:46.084Z,91.61
2022-12-25T01:28:12.418Z,91.63
2022-12-25T01:30:38.969Z,91.67
2022-12-25T01:33:05.328Z,91.67
2022-12-25T01:35:31.684Z,91.63
2022-12-25T01:37:58.264Z,91.83
2022-12-25T01:40:24.616Z,91.74
2022-12-25T01:42:50.958Z,91.74
2022-12-25T01:45:17.515Z,91.65
2022-12-25T01:47:44.064Z,91.59
2022-12-25T01:50:10.405Z,91.77
2022-12-25T01:52:36.948Z,91.58
2022-12-25T01:55:03.307Z,91.61
2022-12-25T01:57:29.650Z,91.67
2022-12-25T01:59:55.968Z,91.58
2022-12-25T02:02:22.590Z,91.61
2022-12-25T02:04:49.309Z,91.61
2022-12-25T02:07:15.647Z,91.55
2022-12-25T02:09:41.963Z,91.61
2022-12-25T02:12:08.315Z,91.56
2022-12-25T02:14:35.881Z,91.91
2022-12-25T02:17:02.270Z,91.71
2022-12-25T02:19:28.652Z,91.58
2022-12-25T02:21:54.990Z,91.68
2022-12-25T02:24:21.523Z,91.58
2022-12-25T02:26:47.846Z,91.71
2022-12-25T02:29:14.402Z,91.62
2022-12-25T02:31:41.015Z,91.68
2022-12-25T02:34:07.364Z,91.69
2022-12-25T02:36:33.931Z,91.61
2022-12-25T02:39:00.307Z,91.61
2022-12-25T02:41:26.638Z,91.53
2022-12-25T02:43:52.967Z,91.72
2022-12-25T02:46:19.371Z,91.64
2022-12-25T02:48:45.746Z,91.60
2022-12-25T02:51:12.080Z,91.60
2022-12-25T02:53:38.661Z,91.66
2022-12-25T02:56:05.224Z,91.66
2022-12-25T02:58:31.598Z,91.91
2022-12-25T03:00:57.960Z,91.79
2022-12-25T03:03:24.420Z,91.60
2022-12-25T03:05:50.809Z,91.52
2022-12-25T03:08:17.359Z,91.62
2022-12-25T03:10:43.703Z,91.50
2022-12-25T03:13:10.249Z,91.61
2022-12-25T03:15:36.811Z,91.50
2022-12-25T03:18:03.340Z,91.41
2022-12-25T03:20:29.693Z,91.58
2022-12-25T03:22:56.126Z,91.53
2022-12-25T03:25:22.492Z,91.67
2022-12-25T03:27:48.849Z,91.38
2022-12-25T03:30:15.175Z,91.56
2022-12-25T03:32:41.716Z,91.51
2022-12-25T03:35:08.073Z,91.70
2022-12-25T03:37:34.393Z,91.56
2022-12-25T03:40:00.928Z,91.73
2022-12-25T03:42:27.245Z,91.61
2022-12-25T03:44:53.644Z,91.78
2022-12-25T03:47:20.253Z,91.66
2022-12-25T03:49:46.576Z,91.52
2022-12-25T03:52:12.914Z,91.58
2022-12-25T03:54:39.247Z,91.56
2022-12-25T03:57:05.580Z,91.56
2022-12-25T03:59:31.879Z,91.74
2022-12-25T04:01:58.373Z,91.47
2022-12-25T04:04:24.773Z,91.32
2022-12-25T04:06:51.302Z,91.58
2022-12-25T04:09:17.612Z,91.58
2022-12-25T04:11:43.931Z,91.52
2022-12-25T04:14:10.473Z,91.51
2022-12-25T04:16:36.805Z,91.40
2022-12-25T04:19:03.151Z,91.55
2022-12-25T04:21:29.494Z,91.61
2022-12-25T04:23:55.843Z,91.55
2022-12-25T04:26:22.182Z,91.37
2022-12-25T04:28:48.754Z,91.45
2022-12-25T04:31:15.163Z,91.62
2022-12-25T04:33:41.564Z,91.43
2022-12-25T04:36:07.884Z,91.36
2022-12-25T04:38:34.230Z,91.74
2022-12-25T04:41:00.586Z,91.56
2022-12-25T04:43:26.903Z,91.65
2022-12-25T04:45:53.291Z,91.69
2022-12-25T04:48:20.128Z,91.64
2022-12-25T04:50:46.463Z,91.66
2022-12-25T04:53:12.784Z,91.71
2022-12-25T04:55:39.108Z,91.45
2022-12-25T04:58:05.860Z,91.68
2022-12-25T05:00:32.203Z,91.49
2022-12-25T05:02:58.720Z,91.77
2022-12-25T05:05:25.297Z,91.58
2022-12-25T05:07:51.615Z,91.54
2022-12-25T05:10:17.929Z,91.66
2022-12-25T05:12:44.494Z,91.55
2022-12-25T05:15:10.828Z,91.64
2022-12-25T05:17:37.162Z,91.60
2022-12-25T05:20:03.498Z,91.62
2022-12-25T05:22:29.840Z,91.63
2022-12-25T05:24:56.158Z,91.58
2022-12-25T05:27:22.512Z,91.61
2022-12-25T05:29:49.071Z,91.62
2022-12-25T05:32:15.418Z,91.39
2022-12-25T05:34:41.751Z,91.65
2022-12-25T05:37:09.066Z,91.41
2022-12-25T05:39:35.444Z,91.51
2022-12-25T05:42:01.800Z,91.49
2022-12-25T05:44:28.300Z,91.50
2022-12-25T05:46:54.658Z,91.59
2022-12-25T05:49:21.222Z,91.59
2022-12-25T05:51:47.566Z,90.72
2022-12-25T05:54:13.925Z,89.12
2022-12-25T05:56:40.284Z,89.30
2022-12-25T05:59:06.638Z,89.53
2022-12-25T06:01:33.097Z,90.35
2022-12-25T06:03:59.761Z,90.97
2022-12-25T06:06:26.138Z,91.24
2022-12-25T06:08:52.681Z,90.94
2022-12-25T06:11:19.049Z,90.76
2022-12-25T06:13:45.410Z,91.00
2022-12-25T06:16:11.794Z,91.58
2022-12-25T06:18:38.186Z,91.14
2022-12-25T06:21:04.551Z,90.77
2022-12-25T06:23:30.940Z,91.10
2022-12-25T06:25:57.292Z,90.70
2022-12-25T06:28:23.651Z,90.78
2022-12-25T06:30:49.997Z,91.10
2022-12-25T06:33:16.312Z,91.48
2022-12-25T06:35:42.856Z,91.60
2022-12-25T06:38:09.208Z,91.65
2022-12-25T06:40:35.559Z,91.63
2022-12-25T06:43:02.114Z,91.72
2022-12-25T06:45:28.497Z,91.76
2022-12-25T06:47:54.857Z,91.73
2022-12-25T06:50:21.183Z,91.72
2022-12-25T06:52:47.737Z,91.62
2022-12-25T06:55:14.061Z,91.56
2022-12-25T06:57:40.392Z,91.75
2022-12-25T07:00:06.924Z,91.64
2022-12-25T07:02:33.480Z,91.62
2022-12-25T07:04:59.890Z,91.24
2022-12-25T07:07:26.230Z,91.27
2022-12-25T07:09:52.624Z,91.53
2022-12-25T07:12:18.987Z,91.43
2022-12-25T07:14:45.322Z,91.25
2022-12-25T07:17:11.665Z,91.26
2022-12-25T07:19:44.441Z,91.34
2022-12-25T07:22:11.447Z,91.42
2022-12-25T07:24:37.784Z,91.32
2022-12-25T07:27:04.125Z,91.12
2022-12-25T07:29:30.469Z,90.64
2022-12-25T07:31:57.119Z,91.38
2022-12-25T07:34:23.513Z,90.95
2022-12-25T07:36:49.873Z,90.91
2022-12-25T07:39:16.299Z,91.05
2022-12-25T07:41:42.675Z,91.19
2022-12-25T07:44:09.241Z,91.12
2022-12-25T07:46:35.810Z,90.79
2022-12-25T07:49:02.150Z,91.10
2022-12-25T07:51:28.494Z,90.96
2022-12-25T07:53:54.838Z,91.23
2022-12-25T07:56:21.176Z,90.64
2022-12-25T07:58:47.721Z,90.17
2022-12-25T08:01:14.202Z,90.34
2022-12-25T08:03:40.733Z,90.02
2022-12-25T08:06:07.331Z,89.82
2022-12-25T08:08:33.878Z,90.23
2022-12-25T08:11:00.233Z,90.66
2022-12-25T08:13:26.806Z,91.20
2022-12-25T08:15:53.141Z,90.83
2022-12-25T08:18:22.201Z,90.06
2022-12-25T08:20:50.953Z,90.41
2022-12-25T08:23:17.289Z,90.45
2022-12-25T08:25:43.628Z,90.54
2022-12-25T08:28:09.942Z,90.72
2022-12-25T08:30:36.547Z,91.27
2022-12-25T08:33:02.934Z,91.27
2022-12-25T08:35:29.295Z,91.36
2022-12-25T08:37:55.668Z,91.60
2022-12-25T08:40:22.019Z,91.53
2022-12-25T08:42:48.567Z,91.69
2022-12-25T08:45:14.885Z,91.61
2022-12-25T08:47:41.419Z,91.32
2022-12-25T08:50:07.781Z,91.43
2022-12-25T08:52:34.584Z,91.58
2022-12-25T08:55:00.905Z,91.74
2022-12-25T08:57:27.242Z,91.76
2022-12-25T08:59:53.583Z,91.80
2022-12-25T09:02:20.139Z,91.64
2022-12-25T09:04:46.623Z,91.72
2022-12-25T09:07:13.190Z,91.73
2022-12-25T09:09:39.548Z,91.73
2022-12-25T09:12:05.903Z,91.72
2022-12-25T09:14:32.249Z,91.66
2022-12-25T09:16:58.608Z,91.73
2022-12-25T09:19:24.933Z,90.72
2022-12-25T09:21:51.253Z,90.71
2022-12-25T09:24:17.563Z,90.71
2022-12-25T09:26:44.345Z,90.83
2022-12-25T09:29:10.713Z,91.19
2022-12-25T09:31:37.055Z,90.48
2022-12-25T09:34:03.434Z,90.59
2022-12-25T09:36:29.787Z,91.26
2022-12-25T09:38:56.121Z,91.31
2022-12-25T09:41:22.472Z,91.42
2022-12-25T09:43:48.803Z,91.53
2022-12-25T09:46:15.193Z,91.47
2022-12-25T09:48:41.606Z,91.56
2022-12-25T09:51:07.954Z,91.64
2022-12-25T09:53:34.291Z,91.57
2022-12-25T09:56:00.857Z,91.55
2022-12-25T09:58:27.193Z,91.58
2022-12-25T10:00:53.540Z,91.55
2022-12-25T10:03:19.991Z,91.51
2022-12-25T10:05:46.400Z,91.55
2022-12-25T10:08:12.759Z,91.47
2022-12-25T10:10:39.904Z,91.41
2022-12-25T10:13:06.250Z,91.50
2022-12-25T10:15:32.660Z,91.41
2022-12-25T10:17:59.286Z,91.43
2022-12-25T10:20:25.816Z,91.48
2022-12-25T10:22:52.369Z,91.51
2022-12-25T10:25:18.711Z,91.54
2022-12-25T10:27:45.043Z,91.56
2022-12-25T10:30:11.593Z,91.52
2022-12-25T10:32:37.929Z,91.52
2022-12-25T10:35:04.456Z,91.42
2022-12-25T10:37:30.796Z,91.51
2022-12-25T10:39:57.157Z,91.44
2022-12-25T10:42:23.506Z,91.47
2022-12-25T10:44:49.848Z,91.53
2022-12-25T10:47:16.419Z,91.59
2022-12-25T10:49:43.416Z,91.52
2022-12-25T10:52:09.746Z,91.28
2022-12-25T10:54:36.119Z,91.21
2022-12-25T10:57:02.461Z,91.19
2022-12-25T10:59:28.992Z,91.38
2022-12-25T11:01:55.823Z,91.18
2022-12-25T11:04:22.293Z,91.07
2022-12-25T11:06:48.648Z,91.35
2022-12-25T11:09:14.998Z,91.13
2022-12-25T11:11:41.354Z,91.14
2022-12-25T11:14:07.698Z,91.36
2022-12-25T11:16:34.166Z,91.13
2022-12-25T11:19:00.547Z,91.34
2022-12-25T11:21:26.913Z,91.20
2022-12-25T11:23:53.279Z,90.83
2022-12-25T11:26:19.607Z,91.04
2022-12-25T11:28:45.958Z,91.15
2022-12-25T11:31:12.366Z,90.82
2022-12-25T11:33:38.710Z,90.88
2022-12-25T11:36:05.040Z,90.60
2022-12-25T11:38:31.533Z,90.63
2022-12-25T11:40:57.923Z,89.96
2022-12-25T11:43:24.482Z,90.47
2022-12-25T11:45:50.809Z,90.76
2022-12-25T11:48:17.137Z,91.02
2022-12-25T11:50:43.473Z,91.18
2022-12-25T11:53:09.819Z,91.60
2022-12-25T11:55:36.177Z,91.72
2022-12-25T11:58:02.509Z,91.79
2022-12-25T12:00:28.834Z,91.54
2022-12-25T12:02:55.352Z,91.08
2022-12-25T12:05:21.849Z,90.88
2022-12-25T12:07:48.193Z,90.66
2022-12-25T12:10:14.548Z,90.68
2022-12-25T12:12:48.338Z,90.84
2022-12-25T12:15:15.303Z,90.86
2022-12-25T12:17:41.623Z,90.71
2022-12-25T12:20:07.991Z,90.62
2022-12-25T12:22:34.362Z,90.42
2022-12-25T12:25:00.712Z,90.49
2022-12-25T12:27:27.263Z,90.40
2022-12-25T12:29:53.617Z,90.40
2022-12-25T12:32:19.967Z,90.31
2022-12-25T12:34:46.321Z,90.24
2022-12-25T12:37:12.688Z,90.28
2022-12-25T12:39:39.040Z,90.43
2022-12-25T12:42:05.400Z,90.22
2022-12-25T12:44:31.792Z,90.22
2022-12-25T12:46:58.384Z,90.35
2022-12-25T12:49:24.785Z,90.20
2022-12-25T12:51:51.140Z,90.24
2022-12-25T12:54:17.474Z,90.31
2022-12-25T12:56:43.813Z,90.54
2022-12-25T12:59:10.165Z,90.36
2022-12-25T13:01:36.830Z,90.50
2022-12-25T13:04:03.270Z,90.53
2022-12-25T13:06:29.639Z,90.63
2022-12-25T13:08:55.987Z,90.37
2022-12-25T13:11:22.342Z,90.32
2022-12-25T13:13:48.706Z,90.31
2022-12-25T13:16:15.121Z,90.06
2022-12-25T13:18:41.464Z,90.09
2022-12-25T13:21:07.790Z,90.06
2022-12-25T13:23:34.117Z,89.96
2022-12-25T13:26:00.681Z,90.05
2022-12-25T13:28:26.999Z,90.02
2022-12-25T13:30:53.354Z,90.17
2022-12-25T13:33:19.786Z,90.17
2022-12-25T13:35:46.166Z,90.35
2022-12-25T13:38:12.538Z,90.48
2022-12-25T13:40:38.876Z,90.35
2022-12-25T13:43:05.521Z,90.28
2022-12-25T13:45:31.939Z,90.27
2022-12-25T13:47:58.348Z,90.41
2022-12-25T13:50:24.693Z,90.33
2022-12-25T13:52:51.035Z,90.31
2022-12-25T13:55:17.363Z,90.52
2022-12-25T13:57:43.722Z,90.47
2022-12-25T14:00:10.082Z,90.47
2022-12-25T14:02:36.505Z,90.50
2022-12-25T14:05:03.145Z,90.44
2022-12-25T14:07:29.470Z,90.55
2022-12-25T14:09:55.785Z,90.62
2022-12-25T14:12:22.126Z,90.53
2022-12-25T14:14:48.676Z,90.62
2022-12-25T14:17:14.995Z,90.42
2022-12-25T14:19:41.337Z,90.53
2022-12-25T14:22:07.652Z,90.48
2022-12-25T14:24:33.999Z,90.31
2022-12-25T14:27:00.752Z,90.47
2022-12-25T14:29:28.595Z,90.74
2022-12-25T14:31:55.255Z,90.72
2022-12-25T14:34:21.814Z,91.41
2022-12-25T14:36:48.382Z,91.46
2022-12-25T14:39:14.726Z,91.17
2022-12-25T14:41:41.061Z,91.50
2022-12-25T14:44:07.390Z,91.67
2022-12-25T14:46:34.074Z,91.79
2022-12-25T14:49:00.479Z,90.68
2022-12-25T14:51:27.308Z,91.13
2022-12-25T14:53:53.641Z,90.81
2022-12-25T14:56:20.232Z,91.18
2022-12-25T14:58:46.654Z,90.99
2022-12-25T15:01:13.013Z,91.09
2022-12-25T15:03:39.403Z,91.08
2022-12-25T15:06:06.008Z,91.01
2022-12-25T15:08:32.376Z,90.97
2022-12-25T15:11:02.259Z,90.95
2022-12-25T15:13:29.332Z,90.84
2022-12-25T15:15:55.950Z,90.73
2022-12-25T15:18:22.360Z,90.72
2022-12-25T15:20:48.700Z,90.66
2022-12-25T15:23:19.710Z,90.83
2022-12-25T15:25:46.514Z,90.67
2022-12-25T15:28:13.201Z,90.61
2022-12-25T15:30:39.748Z,90.53
2022-12-25T15:33:06.379Z,90.52
2022-12-25T15:35:32.730Z,90.49
2022-12-25T15:37:59.070Z,90.56
2022-12-25T15:40:25.467Z,90.50
2022-12-25T15:42:52.010Z,90.48
2022-12-25T15:45:18.779Z,91.15
2022-12-25T15:47:45.268Z,90.22
2022-12-25T15:50:11.600Z,90.32
2022-12-25T15:52:37.919Z,90.50
2022-12-25T15:55:04.281Z,90.43
2022-12-25T15:57:30.621Z,90.18
2022-12-25T15:59:57.165Z,89.84
2022-12-25T16:02:23.603Z,90.54
2022-12-25T16:04:50.017Z,90.35
2022-12-25T16:07:16.359Z,90.60
2022-12-25T16:09:42.716Z,90.52
2022-12-25T16:12:11.909Z,90.38
2022-12-25T16:14:41.047Z,91.22
2022-12-25T16:17:07.448Z,91.19
2022-12-25T16:19:37.124Z,90.77
2022-12-25T16:22:03.451Z,90.52
2022-12-25T16:24:29.822Z,90.30
2022-12-25T16:26:56.470Z,90.04
2022-12-25T16:29:22.808Z,91.07
2022-12-25T16:31:51.421Z,91.08
2022-12-25T16:34:17.760Z,90.98
2022-12-25T16:36:44.110Z,91.16
2022-12-25T16:39:10.463Z,90.80
2022-12-25T16:41:36.808Z,91.05
2022-12-25T16:44:03.126Z,90.82
2022-12-25T16:46:29.455Z,91.09
2022-12-25T16:48:55.790Z,91.01
2022-12-25T16:51:22.744Z,91.01
2022-12-25T16:53:49.100Z,90.89
2022-12-25T16:56:15.690Z,90.14
2022-12-25T16:58:42.026Z,90.34
2022-12-25T17:01:08.371Z,90.45
2022-12-25T17:03:34.856Z,90.56
2022-12-25T17:06:01.539Z,90.98
2022-12-25T17:08:27.884Z,91.14
2022-12-25T17:10:54.436Z,91.11
2022-12-25T17:13:20.754Z,91.44
2022-12-25T17:15:50.586Z,91.10
2022-12-25T17:18:17.281Z,91.02
2022-12-25T17:20:43.605Z,90.96
2022-12-25T17:23:10.222Z,90.99
2022-12-25T17:25:36.563Z,90.90
2022-12-25T17:28:03.140Z,90.84
2022-12-25T17:30:29.548Z,90.91
2022-12-25T17:32:55.989Z,91.13
2022-12-25T17:35:22.629Z,90.87
2022-12-25T17:37:48.940Z,91.22
2022-12-25T17:40:15.480Z,91.18
2022-12-25T17:42:41.937Z,91.58
2022-12-25T17:45:08.499Z,91.05
2022-12-25T17:47:34.851Z,90.96
2022-12-25T17:50:01.213Z,90.80
2022-12-25T17:52:27.608Z,90.59
2022-12-25T17:54:53.977Z,90.96
2022-12-25T17:57:20.305Z,91.04
2022-12-25T17:59:46.620Z,90.89
2022-12-25T18:02:13.249Z,90.92
2022-12-25T18:04:39.615Z,91.08
2022-12-25T18:07:05.953Z,90.88
2022-12-25T18:09:32.316Z,91.10
2022-12-25T18:11:58.671Z,90.79
2022-12-25T18:14:25.006Z,90.95
2022-12-25T18:16:51.381Z,90.99
2022-12-25T18:19:17.819Z,91.08
2022-12-25T18:21:44.187Z,91.01
2022-12-25T18:24:10.611Z,90.87
2022-12-25T18:26:36.967Z,90.82
2022-12-25T18:29:03.292Z,91.09
2022-12-25T18:31:29.911Z,91.10
2022-12-25T18:33:56.592Z,91.22
2022-12-25T18:36:23.156Z,90.91
2022-12-25T18:38:49.610Z,90.88
2022-12-25T18:41:16.263Z,90.96
2022-12-25T18:43:52.402Z,90.96
2022-12-25T18:46:21.733Z,91.12
2022-12-25T18:48:48.104Z,91.02
2022-12-25T18:51:14.477Z,90.87
2022-12-25T18:53:40.888Z,91.12
2022-12-25T18:56:07.408Z,91.04
2022-12-25T18:58:33.776Z,90.98
2022-12-25T19:01:00.295Z,90.99
2022-12-25T19:03:26.676Z,91.11
2022-12-25T19:05:53.124Z,90.93
2022-12-25T19:08:19.693Z,91.05
2022-12-25T19:10:46.088Z,91.07
2022-12-25T19:13:12.414Z,91.20
2022-12-25T19:15:38.741Z,90.96
2022-12-25T19:18:05.305Z,91.00
2022-12-25T19:20:31.636Z,90.90
2022-12-25T19:22:58.184Z,90.84
2022-12-25T19:25:24.521Z,90.70
2022-12-25T19:27:50.866Z,90.83
2022-12-25T19:30:17.401Z,90.97
2022-12-25T19:32:43.718Z,90.76
2022-12-25T19:35:10.051Z,91.18
2022-12-25T19:37:36.389Z,91.01
2022-12-25T19:40:02.734Z,90.58
2022-12-25T19:42:29.084Z,90.90
2022-12-25T19:44:55.435Z,90.94
2022-12-25T19:47:21.787Z,90.84
2022-12-25T19:49:52.863Z,91.04
2022-12-25T19:52:19.580Z,91.21
2022-12-25T19:54:45.930Z,90.98
2022-12-25T19:57:12.285Z,91.01
2022-12-25T19:59:38.636Z,90.92
2022-12-25T20:02:05.134Z,90.89
2022-12-25T20:04:31.636Z,91.01
2022-12-25T20:06:57.984Z,90.96
2022-12-25T20:09:24.325Z,91.10
2022-12-25T20:11:50.670Z,91.28
2022-12-25T20:14:17.019Z,91.31
2022-12-25T20:16:44.049Z,90.91
2022-12-25T20:19:10.630Z,90.95
2022-12-25T20:21:36.975Z,91.14
2022-12-25T20:24:03.535Z,91.08
2022-12-25T20:26:30.089Z,91.05
2022-12-25T20:28:56.437Z,90.37
2022-12-25T20:31:23.013Z,90.11
2022-12-25T20:33:49.380Z,89.87
2022-12-25T20:36:15.718Z,89.55
2022-12-25T20:38:42.048Z,90.12
2022-12-25T20:43:55.657Z,91.01
2022-12-25T20:46:22.064Z,90.85
2022-12-25T20:48:48.466Z,91.11
2022-12-25T20:51:15.044Z,91.13
2022-12-25T20:53:41.367Z,90.67
2022-12-25T20:56:07.679Z,90.65
2022-12-25T20:58:34.005Z,89.87
2022-12-25T21:01:00.531Z,89.45
2022-12-25T21:03:27.032Z,88.86
2022-12-25T21:05:53.485Z,89.35
2022-12-25T21:08:20.065Z,89.36
2022-12-25T21:10:46.602Z,90.21
2022-12-25T21:13:12.943Z,88.74
2022-12-25T21:15:39.278Z,88.90
2022-12-25T21:18:05.597Z,89.17
2022-12-25T21:20:31.928Z,89.34
2022-12-25T21:22:58.473Z,89.41
2022-12-25T21:25:24.786Z,89.63
2022-12-25T21:27:51.154Z,90.03
2022-12-25T21:30:17.722Z,90.48
2022-12-25T21:32:44.071Z,90.58
2022-12-25T21:35:10.411Z,90.75
2022-12-25T21:37:36.762Z,90.91
2022-12-25T21:40:03.108Z,91.09
2022-12-25T21:42:29.461Z,90.77
2022-12-25T21:44:55.791Z,91.07
2022-12-25T21:47:22.327Z,91.21
2022-12-25T21:49:48.660Z,91.35
2022-12-25T21:52:14.980Z,91.41
2022-12-25T21:54:41.320Z,91.20
2022-12-25T21:57:07.648Z,91.57
2022-12-25T21:59:33.988Z,91.36
2022-12-25T22:02:00.384Z,91.49
2022-12-25T22:04:27.060Z,91.49
2022-12-25T22:06:53.402Z,91.62
2022-12-25T22:09:19.930Z,91.54
2022-12-25T22:11:46.276Z,91.51
2022-12-25T22:14:12.622Z,91.74
2022-12-25T22:16:39.158Z,91.62
2022-12-25T22:19:05.491Z,91.74
2022-12-25T22:21:31.822Z,91.51
2022-12-25T22:23:58.214Z,91.58
2022-12-25T22:26:24.576Z,91.56
2022-12-25T22:28:51.122Z,91.58
2022-12-25T22:31:17.492Z,91.67
2022-12-25T22:33:43.868Z,91.58
2022-12-25T22:36:10.413Z,91.68
2022-12-25T22:38:36.734Z,91.63
2022-12-25T22:41:03.062Z,91.69
2022-12-25T22:44:06.283Z,91.48
2022-12-25T22:46:15.724Z,91.68
2022-12-25T22:48:42.060Z,91.72
2022-12-25T22:51:08.416Z,91.73
2022-12-25T22:53:34.766Z,91.62
2022-12-25T22:56:01.309Z,91.55
2022-12-25T22:58:27.661Z,91.38
2022-12-25T23:00:53.995Z,91.53
2022-12-25T23:03:20.452Z,91.82
2022-12-25T23:05:46.886Z,91.60
2022-12-25T23:08:13.222Z,91.59
2022-12-25T23:10:39.573Z,91.60
2022-12-25T23:13:05.899Z,91.65
2022-12-25T23:15:32.538Z,91.54
2022-12-25T23:17:58.953Z,91.84
2022-12-25T23:20:25.498Z,91.85
2022-12-25T23:22:51.838Z,91.74
2022-12-25T23:25:18.195Z,91.64
2022-12-25T23:27:44.561Z,91.63
2022-12-25T23:30:10.912Z,91.60
2022-12-25T23:32:37.253Z,91.64
2022-12-25T23:35:03.599Z,91.56
2022-12-25T23:37:29.944Z,91.61
2022-12-25T23:39:57.451Z,91.54
2022-12-25T23:42:23.788Z,91.60
2022-12-25T23:44:50.116Z,91.59
2022-12-25T23:47:16.490Z,91.53
2022-12-25T23:49:42.839Z,91.51
2022-12-25T23:52:09.170Z,91.57
2022-12-25T23:54:35.723Z,91.56
2022-12-25T23:57:02.066Z,91.50
2022-12-25T23:59:28.413Z,91.49
